sensor_id;sensor_type;location;lat;lon;timestamp;P1;durP1;ratioP1;P2;durP2;ratioP2
26906;SDS011;14472;56.880;16.658;2022-10-22T00:01:11;8.00;;;6.67;;
26906;SDS011;14472;56.880;16.658;2022-10-22T00:03:38;7.27;;;6.57;;
26906;SDS011;14472;56.880;16.658;2022-10-22T00:06:04;7.40;;;6.70;;
26906;SDS011;14472;56.880;16.658;2022-10-22T00:08:29;6.57;;;6.00;;
26906;SDS011;14472;56.880;16.658;2022-10-22T00:10:55;7.37;;;6.50;;
26906;SDS011;14472;56.880;16.658;2022-10-22T00:13:21;7.43;;;6.73;;
26906;SDS011;14472;56.880;16.658;2022-10-22T00:15:48;7.73;;;6.90;;
26906;SDS011;14472;56.880;16.658;2022-10-22T00:18:14;7.17;;;6.57;;
26906;SDS011;14472;56.880;16.658;2022-10-22T00:20:40;7.67;;;6.97;;
26906;SDS011;14472;56.880;16.658;2022-10-22T00:23:05;7.43;;;6.73;;
26906;SDS011;14472;56.880;16.658;2022-10-22T00:25:32;7.37;;;6.70;;
26906;SDS011;14472;56.880;16.658;2022-10-22T00:27:59;8.00;;;7.30;;
26906;SDS011;14472;56.880;16.658;2022-10-22T00:30:25;7.80;;;7.00;;
26906;SDS011;14472;56.880;16.658;2022-10-22T00:32:51;8.30;;;7.50;;
26906;SDS011;14472;56.880;16.658;2022-10-22T00:35:16;8.07;;;7.27;;
26906;SDS011;14472;56.880;16.658;2022-10-22T00:37:42;7.50;;;6.80;;
26906;SDS011;14472;56.880;16.658;2022-10-22T00:40:08;8.03;;;7.30;;
26906;SDS011;14472;56.880;16.658;2022-10-22T00:42:35;8.17;;;7.37;;
26906;SDS011;14472;56.880;16.658;2022-10-22T00:47:43;8.00;;;7.20;;
26906;SDS011;14472;56.880;16.658;2022-10-22T00:50:24;8.40;;;7.60;;
26906;SDS011;14472;56.880;16.658;2022-10-22T00:53:05;7.97;;;7.27;;
26906;SDS011;14472;56.880;16.658;2022-10-22T00:55:34;7.90;;;7.10;;
26906;SDS011;14472;56.880;16.658;2022-10-22T00:58:01;8.00;;;7.30;;
26906;SDS011;14472;56.880;16.658;2022-10-22T01:00:27;7.83;;;7.07;;
26906;SDS011;14472;56.880;16.658;2022-10-22T01:02:53;8.03;;;7.33;;
26906;SDS011;14472;56.880;16.658;2022-10-22T01:05:20;8.60;;;7.80;;
26906;SDS011;14472;56.880;16.658;2022-10-22T01:07:47;9.57;;;8.57;;
26906;SDS011;14472;56.880;16.658;2022-10-22T01:12:54;9.50;;;8.60;;
26906;SDS011;14472;56.880;16.658;2022-10-22T01:21:23;9.17;;;8.27;;
26906;SDS011;14472;56.880;16.658;2022-10-22T01:31:43;10.50;;;8.63;;
26906;SDS011;14472;56.880;16.658;2022-10-22T01:34:17;10.57;;;9.10;;
26906;SDS011;14472;56.880;16.658;2022-10-22T01:36:44;9.40;;;8.50;;
26906;SDS011;14472;56.880;16.658;2022-10-22T01:39:11;10.70;;;9.03;;
26906;SDS011;14472;56.880;16.658;2022-10-22T01:41:41;10.50;;;9.37;;
26906;SDS011;14472;56.880;16.658;2022-10-22T01:50:10;10.67;;;9.00;;
26906;SDS011;14472;56.880;16.658;2022-10-22T01:55:48;9.50;;;8.50;;
26906;SDS011;14472;56.880;16.658;2022-10-22T02:03:39;11.03;;;9.50;;
26906;SDS011;14472;56.880;16.658;2022-10-22T02:06:13;10.47;;;9.47;;
26906;SDS011;14472;56.880;16.658;2022-10-22T02:08:44;10.83;;;9.50;;
26906;SDS011;14472;56.880;16.658;2022-10-22T02:11:11;10.77;;;8.90;;
26906;SDS011;14472;56.880;16.658;2022-10-22T02:13:40;11.67;;;9.53;;
26906;SDS011;14472;56.880;16.658;2022-10-22T02:16:09;10.10;;;9.10;;
26906;SDS011;14472;56.880;16.658;2022-10-22T02:18:41;10.40;;;9.40;;
26906;SDS011;14472;56.880;16.658;2022-10-22T02:21:09;11.03;;;9.40;;
26906;SDS011;14472;56.880;16.658;2022-10-22T02:23:35;10.30;;;9.30;;
26906;SDS011;14472;56.880;16.658;2022-10-22T02:26:02;11.23;;;10.13;;
26906;SDS011;14472;56.880;16.658;2022-10-22T02:28:36;10.10;;;9.20;;
26906;SDS011;14472;56.880;16.658;2022-10-22T02:31:30;10.53;;;9.43;;
26906;SDS011;14472;56.880;16.658;2022-10-22T02:33:56;10.17;;;9.17;;
26906;SDS011;14472;56.880;16.658;2022-10-22T02:36:28;10.27;;;9.27;;
26906;SDS011;14472;56.880;16.658;2022-10-22T02:38:55;10.47;;;9.47;;
26906;SDS011;14472;56.880;16.658;2022-10-22T02:41:21;10.30;;;9.30;;
26906;SDS011;14472;56.880;16.658;2022-10-22T02:43:49;9.53;;;8.37;;
26906;SDS011;14472;56.880;16.658;2022-10-22T02:46:18;10.13;;;9.23;;
26906;SDS011;14472;56.880;16.658;2022-10-22T02:48:44;10.77;;;9.77;;
26906;SDS011;14472;56.880;16.658;2022-10-22T02:51:10;10.63;;;9.57;;
26906;SDS011;14472;56.880;16.658;2022-10-22T02:53:36;9.97;;;8.97;;
26906;SDS011;14472;56.880;16.658;2022-10-22T02:56:01;10.07;;;9.07;;
26906;SDS011;14472;56.880;16.658;2022-10-22T02:58:27;9.77;;;8.87;;
26906;SDS011;14472;56.880;16.658;2022-10-22T03:00:53;12.67;;;9.80;;
26906;SDS011;14472;56.880;16.658;2022-10-22T03:03:18;10.33;;;9.13;;
26906;SDS011;14472;56.880;16.658;2022-10-22T03:05:44;13.00;;;9.73;;
26906;SDS011;14472;56.880;16.658;2022-10-22T03:08:10;9.70;;;8.80;;
26906;SDS011;14472;56.880;16.658;2022-10-22T03:10:35;10.27;;;9.10;;
26906;SDS011;14472;56.880;16.658;2022-10-22T03:13:01;10.50;;;9.50;;
26906;SDS011;14472;56.880;16.658;2022-10-22T03:15:27;9.60;;;8.70;;
26906;SDS011;14472;56.880;16.658;2022-10-22T03:17:53;10.03;;;9.10;;
26906;SDS011;14472;56.880;16.658;2022-10-22T03:20:18;9.50;;;8.53;;
26906;SDS011;14472;56.880;16.658;2022-10-22T03:22:44;9.83;;;8.83;;
26906;SDS011;14472;56.880;16.658;2022-10-22T03:25:12;10.83;;;9.50;;
26906;SDS011;14472;56.880;16.658;2022-10-22T03:27:43;10.50;;;9.40;;
26906;SDS011;14472;56.880;16.658;2022-10-22T03:30:09;12.43;;;11.03;;
26906;SDS011;14472;56.880;16.658;2022-10-22T03:32:35;11.30;;;10.20;;
26906;SDS011;14472;56.880;16.658;2022-10-22T03:35:01;11.97;;;10.60;;
26906;SDS011;14472;56.880;16.658;2022-10-22T03:37:28;13.20;;;11.00;;
26906;SDS011;14472;56.880;16.658;2022-10-22T03:39:54;12.63;;;11.43;;
26906;SDS011;14472;56.880;16.658;2022-10-22T03:42:20;14.33;;;12.53;;
26906;SDS011;14472;56.880;16.658;2022-10-22T03:44:46;15.47;;;13.40;;
26906;SDS011;14472;56.880;16.658;2022-10-22T03:47:12;14.60;;;12.80;;
26906;SDS011;14472;56.880;16.658;2022-10-22T03:49:37;15.20;;;13.43;;
26906;SDS011;14472;56.880;16.658;2022-10-22T03:52:07;17.37;;;13.70;;
26906;SDS011;14472;56.880;16.658;2022-10-22T03:54:34;15.10;;;13.50;;
26906;SDS011;14472;56.880;16.658;2022-10-22T03:57:01;19.27;;;14.60;;
26906;SDS011;14472;56.880;16.658;2022-10-22T03:59:27;16.77;;;14.97;;
26906;SDS011;14472;56.880;16.658;2022-10-22T04:01:53;16.80;;;13.27;;
26906;SDS011;14472;56.880;16.658;2022-10-22T04:04:19;15.43;;;13.00;;
26906;SDS011;14472;56.880;16.658;2022-10-22T04:06:45;18.63;;;14.03;;
26906;SDS011;14472;56.880;16.658;2022-10-22T04:09:10;16.97;;;13.60;;
26906;SDS011;14472;56.880;16.658;2022-10-22T04:11:36;18.77;;;14.00;;
26906;SDS011;14472;56.880;16.658;2022-10-22T04:14:01;16.77;;;14.20;;
26906;SDS011;14472;56.880;16.658;2022-10-22T04:16:27;18.17;;;14.47;;
26906;SDS011;14472;56.880;16.658;2022-10-22T04:18:55;17.90;;;14.30;;
26906;SDS011;14472;56.880;16.658;2022-10-22T04:21:21;19.10;;;13.73;;
26906;SDS011;14472;56.880;16.658;2022-10-22T04:23:48;17.67;;;14.33;;
26906;SDS011;14472;56.880;16.658;2022-10-22T04:26:16;17.03;;;14.67;;
26906;SDS011;14472;56.880;16.658;2022-10-22T04:28:43;17.57;;;14.67;;
26906;SDS011;14472;56.880;16.658;2022-10-22T04:31:09;19.63;;;14.73;;
26906;SDS011;14472;56.880;16.658;2022-10-22T04:33:37;17.30;;;14.47;;
26906;SDS011;14472;56.880;16.658;2022-10-22T04:36:07;17.60;;;14.27;;
26906;SDS011;14472;56.880;16.658;2022-10-22T04:38:35;19.17;;;14.40;;
26906;SDS011;14472;56.880;16.658;2022-10-22T04:41:11;18.20;;;14.07;;
26906;SDS011;14472;56.880;16.658;2022-10-22T04:43:41;19.17;;;14.20;;
26906;SDS011;14472;56.880;16.658;2022-10-22T04:46:08;16.23;;;13.97;;
26906;SDS011;14472;56.880;16.658;2022-10-22T04:48:35;18.07;;;14.10;;
26906;SDS011;14472;56.880;16.658;2022-10-22T04:51:03;16.27;;;13.83;;
26906;SDS011;14472;56.880;16.658;2022-10-22T04:53:30;15.37;;;13.20;;
26906;SDS011;14472;56.880;16.658;2022-10-22T04:58:44;16.27;;;13.23;;
26906;SDS011;14472;56.880;16.658;2022-10-22T05:01:18;15.77;;;13.37;;
26906;SDS011;14472;56.880;16.658;2022-10-22T05:03:46;15.93;;;14.20;;
26906;SDS011;14472;56.880;16.658;2022-10-22T05:06:13;19.73;;;14.23;;
26906;SDS011;14472;56.880;16.658;2022-10-22T05:08:39;16.37;;;14.17;;
26906;SDS011;14472;56.880;16.658;2022-10-22T05:11:13;16.67;;;13.97;;
26906;SDS011;14472;56.880;16.658;2022-10-22T05:13:40;15.27;;;13.43;;
26906;SDS011;14472;56.880;16.658;2022-10-22T05:16:07;16.33;;;13.73;;
26906;SDS011;14472;56.880;16.658;2022-10-22T05:18:33;19.47;;;13.80;;
26906;SDS011;14472;56.880;16.658;2022-10-22T05:21:03;15.33;;;13.73;;
26906;SDS011;14472;56.880;16.658;2022-10-22T05:23:33;17.93;;;13.63;;
26906;SDS011;14472;56.880;16.658;2022-10-22T05:26:02;17.07;;;13.47;;
26906;SDS011;14472;56.880;16.658;2022-10-22T05:28:29;18.37;;;14.00;;
26906;SDS011;14472;56.880;16.658;2022-10-22T05:30:56;16.87;;;13.70;;
26906;SDS011;14472;56.880;16.658;2022-10-22T05:33:22;14.70;;;12.37;;
26906;SDS011;14472;56.880;16.658;2022-10-22T05:35:49;14.10;;;12.67;;
26906;SDS011;14472;56.880;16.658;2022-10-22T05:38:15;14.03;;;12.00;;
26906;SDS011;14472;56.880;16.658;2022-10-22T05:40:41;15.13;;;12.97;;
26906;SDS011;14472;56.880;16.658;2022-10-22T05:43:07;17.70;;;12.73;;
26906;SDS011;14472;56.880;16.658;2022-10-22T05:45:39;16.23;;;12.93;;
26906;SDS011;14472;56.880;16.658;2022-10-22T05:48:06;17.93;;;13.00;;
26906;SDS011;14472;56.880;16.658;2022-10-22T05:50:36;15.40;;;12.77;;
26906;SDS011;14472;56.880;16.658;2022-10-22T05:53:03;14.13;;;12.63;;
26906;SDS011;14472;56.880;16.658;2022-10-22T05:55:30;16.07;;;12.43;;
26906;SDS011;14472;56.880;16.658;2022-10-22T05:58:01;14.13;;;12.27;;
26906;SDS011;14472;56.880;16.658;2022-10-22T06:00:30;13.57;;;12.23;;
26906;SDS011;14472;56.880;16.658;2022-10-22T06:02:56;17.80;;;12.90;;
26906;SDS011;14472;56.880;16.658;2022-10-22T06:05:21;15.13;;;12.40;;
26906;SDS011;14472;56.880;16.658;2022-10-22T06:07:47;15.40;;;12.40;;
26906;SDS011;14472;56.880;16.658;2022-10-22T06:10:13;15.57;;;12.53;;
26906;SDS011;14472;56.880;16.658;2022-10-22T06:12:41;15.60;;;12.47;;
26906;SDS011;14472;56.880;16.658;2022-10-22T06:15:08;13.73;;;12.33;;
26906;SDS011;14472;56.880;16.658;2022-10-22T06:17:35;16.07;;;12.53;;
26906;SDS011;14472;56.880;16.658;2022-10-22T06:20:01;15.53;;;12.57;;
26906;SDS011;14472;56.880;16.658;2022-10-22T06:22:27;13.47;;;11.67;;
26906;SDS011;14472;56.880;16.658;2022-10-22T06:24:53;12.57;;;11.20;;
26906;SDS011;14472;56.880;16.658;2022-10-22T06:27:18;12.83;;;11.40;;
26906;SDS011;14472;56.880;16.658;2022-10-22T06:29:44;13.03;;;11.63;;
26906;SDS011;14472;56.880;16.658;2022-10-22T06:32:10;13.43;;;11.80;;
26906;SDS011;14472;56.880;16.658;2022-10-22T06:34:35;14.73;;;12.43;;
26906;SDS011;14472;56.880;16.658;2022-10-22T06:37:01;14.27;;;12.50;;
26906;SDS011;14472;56.880;16.658;2022-10-22T06:39:27;15.13;;;13.53;;
26906;SDS011;14472;56.880;16.658;2022-10-22T06:41:52;15.83;;;13.77;;
26906;SDS011;14472;56.880;16.658;2022-10-22T06:44:18;15.50;;;12.73;;
26906;SDS011;14472;56.880;16.658;2022-10-22T06:46:44;14.47;;;12.90;;
26906;SDS011;14472;56.880;16.658;2022-10-22T06:49:13;13.03;;;11.73;;
26906;SDS011;14472;56.880;16.658;2022-10-22T06:51:39;14.30;;;12.77;;
26906;SDS011;14472;56.880;16.658;2022-10-22T06:54:05;14.63;;;13.13;;
26906;SDS011;14472;56.880;16.658;2022-10-22T06:56:31;15.40;;;13.77;;
26906;SDS011;14472;56.880;16.658;2022-10-22T06:58:57;15.93;;;14.00;;
26906;SDS011;14472;56.880;16.658;2022-10-22T07:01:24;13.80;;;12.37;;
26906;SDS011;14472;56.880;16.658;2022-10-22T07:03:52;15.43;;;13.40;;
26906;SDS011;14472;56.880;16.658;2022-10-22T07:06:18;14.43;;;12.40;;
26906;SDS011;14472;56.880;16.658;2022-10-22T07:08:45;15.37;;;13.13;;
26906;SDS011;14472;56.880;16.658;2022-10-22T07:13:43;14.77;;;12.80;;
26906;SDS011;14472;56.880;16.658;2022-10-22T07:16:10;15.53;;;12.63;;
26906;SDS011;14472;56.880;16.658;2022-10-22T07:18:37;14.30;;;12.73;;
26906;SDS011;14472;56.880;16.658;2022-10-22T07:21:04;15.67;;;13.23;;
26906;SDS011;14472;56.880;16.658;2022-10-22T07:23:30;12.47;;;11.17;;
26906;SDS011;14472;56.880;16.658;2022-10-22T07:25:56;13.50;;;12.10;;
26906;SDS011;14472;56.880;16.658;2022-10-22T07:28:22;14.17;;;12.53;;
26906;SDS011;14472;56.880;16.658;2022-10-22T07:30:48;13.50;;;12.10;;
26906;SDS011;14472;56.880;16.658;2022-10-22T07:33:13;14.10;;;12.60;;
26906;SDS011;14472;56.880;16.658;2022-10-22T07:35:39;13.87;;;12.10;;
26906;SDS011;14472;56.880;16.658;2022-10-22T07:38:06;14.33;;;12.83;;
26906;SDS011;14472;56.880;16.658;2022-10-22T07:40:33;14.23;;;12.70;;
26906;SDS011;14472;56.880;16.658;2022-10-22T07:42:59;13.63;;;11.80;;
26906;SDS011;14472;56.880;16.658;2022-10-22T07:45:25;14.20;;;12.50;;
26906;SDS011;14472;56.880;16.658;2022-10-22T07:47:51;16.43;;;13.43;;
26906;SDS011;14472;56.880;16.658;2022-10-22T07:50:16;15.13;;;13.47;;
26906;SDS011;14472;56.880;16.658;2022-10-22T07:52:42;15.70;;;12.93;;
26906;SDS011;14472;56.880;16.658;2022-10-22T07:55:08;14.97;;;12.73;;
26906;SDS011;14472;56.880;16.658;2022-10-22T07:57:34;15.17;;;12.87;;
26906;SDS011;14472;56.880;16.658;2022-10-22T08:00:02;15.27;;;12.97;;
26906;SDS011;14472;56.880;16.658;2022-10-22T08:02:28;14.53;;;12.93;;
26906;SDS011;14472;56.880;16.658;2022-10-22T08:04:54;15.07;;;13.47;;
26906;SDS011;14472;56.880;16.658;2022-10-22T08:07:21;13.97;;;12.53;;
26906;SDS011;14472;56.880;16.658;2022-10-22T08:09:47;16.60;;;13.07;;
26906;SDS011;14472;56.880;16.658;2022-10-22T08:12:13;15.50;;;13.90;;
26906;SDS011;14472;56.880;16.658;2022-10-22T08:14:38;14.43;;;12.93;;
26906;SDS011;14472;56.880;16.658;2022-10-22T08:17:04;16.80;;;13.80;;
26906;SDS011;14472;56.880;16.658;2022-10-22T08:19:30;15.20;;;13.60;;
26906;SDS011;14472;56.880;16.658;2022-10-22T08:21:56;15.57;;;13.93;;
26906;SDS011;14472;56.880;16.658;2022-10-22T08:24:23;15.53;;;14.03;;
26906;SDS011;14472;56.880;16.658;2022-10-22T08:26:50;15.60;;;13.97;;
26906;SDS011;14472;56.880;16.658;2022-10-22T08:29:18;16.20;;;14.50;;
26906;SDS011;14472;56.880;16.658;2022-10-22T08:31:45;15.57;;;13.87;;
26906;SDS011;14472;56.880;16.658;2022-10-22T08:34:11;18.53;;;14.57;;
26906;SDS011;14472;56.880;16.658;2022-10-22T08:36:37;17.23;;;14.30;;
26906;SDS011;14472;56.880;16.658;2022-10-22T08:39:02;15.53;;;13.90;;
26906;SDS011;14472;56.880;16.658;2022-10-22T08:41:28;16.87;;;15.07;;
26906;SDS011;14472;56.880;16.658;2022-10-22T08:48:56;18.87;;;13.93;;
26906;SDS011;14472;56.880;16.658;2022-10-22T08:51:26;19.43;;;14.23;;
26906;SDS011;14472;56.880;16.658;2022-10-22T08:57:18;18.47;;;12.90;;
26906;SDS011;14472;56.880;16.658;2022-10-22T08:59:45;16.03;;;13.60;;
26906;SDS011;14472;56.880;16.658;2022-10-22T09:07:50;15.00;;;11.97;;
26906;SDS011;14472;56.880;16.658;2022-10-22T09:10:17;16.93;;;13.93;;
26906;SDS011;14472;56.880;16.658;2022-10-22T09:12:46;18.10;;;14.13;;
26906;SDS011;14472;56.880;16.658;2022-10-22T09:15:13;15.10;;;12.83;;
26906;SDS011;14472;56.880;16.658;2022-10-22T09:17:44;14.80;;;13.20;;
26906;SDS011;14472;56.880;16.658;2022-10-22T09:20:25;17.97;;;13.73;;
26906;SDS011;14472;56.880;16.658;2022-10-22T09:23:11;15.20;;;12.73;;
26906;SDS011;14472;56.880;16.658;2022-10-22T09:25:44;16.30;;;13.07;;
26906;SDS011;14472;56.880;16.658;2022-10-22T09:28:11;15.70;;;12.77;;
26906;SDS011;14472;56.880;16.658;2022-10-22T09:30:37;15.17;;;12.17;;
26906;SDS011;14472;56.880;16.658;2022-10-22T09:33:10;15.33;;;12.33;;
26906;SDS011;14472;56.880;16.658;2022-10-22T09:38:12;14.07;;;11.90;;
26906;SDS011;14472;56.880;16.658;2022-10-22T09:40:47;15.07;;;12.17;;
26906;SDS011;14472;56.880;16.658;2022-10-22T09:43:15;13.33;;;10.63;;
26906;SDS011;14472;56.880;16.658;2022-10-22T09:45:42;14.47;;;11.73;;
26906;SDS011;14472;56.880;16.658;2022-10-22T09:48:19;15.30;;;12.30;;
26906;SDS011;14472;56.880;16.658;2022-10-22T09:50:54;15.23;;;11.77;;
26906;SDS011;14472;56.880;16.658;2022-10-22T09:53:29;13.17;;;11.77;;
26906;SDS011;14472;56.880;16.658;2022-10-22T09:56:00;15.40;;;12.37;;
26906;SDS011;14472;56.880;16.658;2022-10-22T09:58:43;13.10;;;11.53;;
26906;SDS011;14472;56.880;16.658;2022-10-22T10:01:18;14.80;;;11.10;;
26906;SDS011;14472;56.880;16.658;2022-10-22T10:03:52;14.37;;;11.47;;
26906;SDS011;14472;56.880;16.658;2022-10-22T10:06:19;13.90;;;11.87;;
26906;SDS011;14472;56.880;16.658;2022-10-22T10:08:46;13.37;;;11.97;;
26906;SDS011;14472;56.880;16.658;2022-10-22T10:14:23;13.37;;;10.87;;
26906;SDS011;14472;56.880;16.658;2022-10-22T10:17:00;14.57;;;11.87;;
26906;SDS011;14472;56.880;16.658;2022-10-22T10:19:51;16.47;;;12.13;;
26906;SDS011;14472;56.880;16.658;2022-10-22T10:28:34;13.20;;;11.40;;
26906;SDS011;14472;56.880;16.658;2022-10-22T10:33:55;13.63;;;12.10;;
26906;SDS011;14472;56.880;16.658;2022-10-22T10:36:34;13.33;;;12.03;;
26906;SDS011;14472;56.880;16.658;2022-10-22T10:39:09;13.60;;;12.03;;
26906;SDS011;14472;56.880;16.658;2022-10-22T10:44:16;14.27;;;12.80;;
26906;SDS011;14472;56.880;16.658;2022-10-22T10:47:06;14.30;;;12.37;;
26906;SDS011;14472;56.880;16.658;2022-10-22T10:50:16;14.47;;;12.20;;
26906;SDS011;14472;56.880;16.658;2022-10-22T10:53:01;12.10;;;10.43;;
26906;SDS011;14472;56.880;16.658;2022-10-22T10:55:59;11.57;;;10.13;;
26906;SDS011;14472;56.880;16.658;2022-10-22T11:06:53;12.47;;;11.00;;
26906;SDS011;14472;56.880;16.658;2022-10-22T11:09:23;13.87;;;10.80;;
26906;SDS011;14472;56.880;16.658;2022-10-22T11:11:58;12.43;;;10.43;;
26906;SDS011;14472;56.880;16.658;2022-10-22T11:14:29;11.77;;;10.13;;
26906;SDS011;14472;56.880;16.658;2022-10-22T11:17:23;14.20;;;10.70;;
26906;SDS011;14472;56.880;16.658;2022-10-22T11:19:51;10.90;;;9.30;;
26906;SDS011;14472;56.880;16.658;2022-10-22T11:30:13;10.63;;;9.27;;
26906;SDS011;14472;56.880;16.658;2022-10-22T11:32:41;10.30;;;9.27;;
26906;SDS011;14472;56.880;16.658;2022-10-22T11:35:15;11.33;;;9.97;;
26906;SDS011;14472;56.880;16.658;2022-10-22T11:37:44;11.33;;;10.00;;
26906;SDS011;14472;56.880;16.658;2022-10-22T11:40:24;10.70;;;9.37;;
26906;SDS011;14472;56.880;16.658;2022-10-22T11:43:06;10.27;;;9.27;;
26906;SDS011;14472;56.880;16.658;2022-10-22T11:45:34;9.87;;;8.63;;
26906;SDS011;14472;56.880;16.658;2022-10-22T11:55:45;10.23;;;9.20;;
26906;SDS011;14472;56.880;16.658;2022-10-22T11:58:32;10.30;;;9.30;;
26906;SDS011;14472;56.880;16.658;2022-10-22T12:06:20;9.97;;;8.90;;
26906;SDS011;14472;56.880;16.658;2022-10-22T12:11:24;10.50;;;9.50;;
26906;SDS011;14472;56.880;16.658;2022-10-22T12:16:57;10.97;;;9.80;;
26906;SDS011;14472;56.880;16.658;2022-10-22T12:19:29;10.17;;;9.03;;
26906;SDS011;14472;56.880;16.658;2022-10-22T12:22:09;9.70;;;8.70;;
26906;SDS011;14472;56.880;16.658;2022-10-22T12:24:42;9.60;;;8.60;;
26906;SDS011;14472;56.880;16.658;2022-10-22T12:27:26;9.63;;;8.73;;
26906;SDS011;14472;56.880;16.658;2022-10-22T12:29:58;9.40;;;8.50;;
26906;SDS011;14472;56.880;16.658;2022-10-22T12:32:32;9.10;;;8.20;;
26906;SDS011;14472;56.880;16.658;2022-10-22T12:35:05;10.73;;;9.53;;
26906;SDS011;14472;56.880;16.658;2022-10-22T12:37:36;9.80;;;8.50;;
26906;SDS011;14472;56.880;16.658;2022-10-22T12:40:23;8.73;;;7.83;;
26906;SDS011;14472;56.880;16.658;2022-10-22T12:45:28;8.93;;;8.03;;
26906;SDS011;14472;56.880;16.658;2022-10-22T12:47:58;9.27;;;8.37;;
26906;SDS011;14472;56.880;16.658;2022-10-22T12:50:35;8.77;;;7.97;;
26906;SDS011;14472;56.880;16.658;2022-10-22T12:53:34;9.37;;;8.47;;
26906;SDS011;14472;56.880;16.658;2022-10-22T12:56:11;8.67;;;7.87;;
26906;SDS011;14472;56.880;16.658;2022-10-22T12:58:45;9.30;;;8.40;;
26906;SDS011;14472;56.880;16.658;2022-10-22T13:01:17;8.70;;;7.80;;
26906;SDS011;14472;56.880;16.658;2022-10-22T13:03:50;9.20;;;8.30;;
26906;SDS011;14472;56.880;16.658;2022-10-22T13:06:46;9.37;;;8.47;;
26906;SDS011;14472;56.880;16.658;2022-10-22T13:09:18;9.20;;;8.30;;
26906;SDS011;14472;56.880;16.658;2022-10-22T13:14:29;8.93;;;8.03;;
26906;SDS011;14472;56.880;16.658;2022-10-22T13:19:47;9.37;;;8.30;;
26906;SDS011;14472;56.880;16.658;2022-10-22T13:24:52;9.53;;;8.57;;
26906;SDS011;14472;56.880;16.658;2022-10-22T13:27:18;9.07;;;8.17;;
26906;SDS011;14472;56.880;16.658;2022-10-22T13:29:44;8.57;;;7.77;;
26906;SDS011;14472;56.880;16.658;2022-10-22T13:32:29;8.97;;;8.17;;
26906;SDS011;14472;56.880;16.658;2022-10-22T13:34:58;9.50;;;8.50;;
26906;SDS011;14472;56.880;16.658;2022-10-22T13:37:25;9.73;;;8.73;;
26906;SDS011;14472;56.880;16.658;2022-10-22T13:39:52;9.10;;;8.20;;
26906;SDS011;14472;56.880;16.658;2022-10-22T13:42:18;9.50;;;8.43;;
26906;SDS011;14472;56.880;16.658;2022-10-22T13:44:44;9.63;;;8.70;;
26906;SDS011;14472;56.880;16.658;2022-10-22T13:47:23;9.47;;;8.60;;
26906;SDS011;14472;56.880;16.658;2022-10-22T13:49:57;10.60;;;8.80;;
26906;SDS011;14472;56.880;16.658;2022-10-22T13:52:30;9.17;;;8.37;;
26906;SDS011;14472;56.880;16.658;2022-10-22T13:55:11;9.53;;;8.53;;
26906;SDS011;14472;56.880;16.658;2022-10-22T13:57:49;7.73;;;6.93;;
26906;SDS011;14472;56.880;16.658;2022-10-22T14:00:18;8.03;;;7.33;;
26906;SDS011;14472;56.880;16.658;2022-10-22T14:02:45;7.83;;;7.13;;
26906;SDS011;14472;56.880;16.658;2022-10-22T14:05:13;7.83;;;7.13;;
26906;SDS011;14472;56.880;16.658;2022-10-22T14:07:40;7.27;;;6.57;;
26906;SDS011;14472;56.880;16.658;2022-10-22T14:10:16;8.00;;;7.30;;
26906;SDS011;14472;56.880;16.658;2022-10-22T14:12:44;7.70;;;7.00;;
26906;SDS011;14472;56.880;16.658;2022-10-22T14:15:10;8.20;;;7.50;;
26906;SDS011;14472;56.880;16.658;2022-10-22T14:17:37;8.30;;;7.60;;
26906;SDS011;14472;56.880;16.658;2022-10-22T14:20:09;8.77;;;7.97;;
26906;SDS011;14472;56.880;16.658;2022-10-22T14:22:39;9.67;;;8.67;;
26906;SDS011;14472;56.880;16.658;2022-10-22T14:25:05;9.00;;;8.20;;
26906;SDS011;14472;56.880;16.658;2022-10-22T14:27:33;10.30;;;9.27;;
26906;SDS011;14472;56.880;16.658;2022-10-22T14:29:58;10.00;;;9.00;;
26906;SDS011;14472;56.880;16.658;2022-10-22T14:32:25;10.30;;;9.30;;
26906;SDS011;14472;56.880;16.658;2022-10-22T14:34:52;10.33;;;9.33;;
26906;SDS011;14472;56.880;16.658;2022-10-22T14:37:18;10.53;;;9.43;;
26906;SDS011;14472;56.880;16.658;2022-10-22T14:39:45;11.37;;;9.43;;
26906;SDS011;14472;56.880;16.658;2022-10-22T14:42:16;10.93;;;9.73;;
26906;SDS011;14472;56.880;16.658;2022-10-22T14:44:43;10.47;;;9.27;;
26906;SDS011;14472;56.880;16.658;2022-10-22T14:47:09;10.13;;;9.13;;
26906;SDS011;14472;56.880;16.658;2022-10-22T14:49:35;10.47;;;9.47;;
26906;SDS011;14472;56.880;16.658;2022-10-22T14:52:00;10.07;;;9.07;;
26906;SDS011;14472;56.880;16.658;2022-10-22T14:54:26;10.00;;;8.97;;
26906;SDS011;14472;56.880;16.658;2022-10-22T14:56:52;11.43;;;10.03;;
26906;SDS011;14472;56.880;16.658;2022-10-22T14:59:18;10.17;;;9.07;;
26906;SDS011;14472;56.880;16.658;2022-10-22T15:01:43;10.47;;;9.20;;
26906;SDS011;14472;56.880;16.658;2022-10-22T15:04:09;11.23;;;9.37;;
26906;SDS011;14472;56.880;16.658;2022-10-22T15:06:35;10.83;;;9.73;;
26906;SDS011;14472;56.880;16.658;2022-10-22T15:09:00;11.20;;;9.87;;
26906;SDS011;14472;56.880;16.658;2022-10-22T15:11:26;10.80;;;9.60;;
26906;SDS011;14472;56.880;16.658;2022-10-22T15:13:52;12.10;;;9.93;;
26906;SDS011;14472;56.880;16.658;2022-10-22T15:16:18;12.53;;;9.80;;
26906;SDS011;14472;56.880;16.658;2022-10-22T15:18:43;11.73;;;10.53;;
26906;SDS011;14472;56.880;16.658;2022-10-22T15:21:16;13.77;;;10.73;;
26906;SDS011;14472;56.880;16.658;2022-10-22T15:23:44;10.90;;;9.80;;
26906;SDS011;14472;56.880;16.658;2022-10-22T15:26:11;12.30;;;10.37;;
26906;SDS011;14472;56.880;16.658;2022-10-22T15:28:38;12.37;;;10.33;;
26906;SDS011;14472;56.880;16.658;2022-10-22T15:31:04;11.33;;;10.13;;
26906;SDS011;14472;56.880;16.658;2022-10-22T15:33:30;13.10;;;10.90;;
26906;SDS011;14472;56.880;16.658;2022-10-22T15:35:56;12.63;;;10.50;;
26906;SDS011;14472;56.880;16.658;2022-10-22T15:38:26;11.53;;;10.30;;
26906;SDS011;14472;56.880;16.658;2022-10-22T15:41:02;11.50;;;10.27;;
26906;SDS011;14472;56.880;16.658;2022-10-22T15:43:30;10.53;;;9.13;;
26906;SDS011;14472;56.880;16.658;2022-10-22T15:46:17;9.53;;;8.43;;
26906;SDS011;14472;56.880;16.658;2022-10-22T15:48:43;10.07;;;8.93;;
26906;SDS011;14472;56.880;16.658;2022-10-22T15:51:10;8.83;;;8.03;;
26906;SDS011;14472;56.880;16.658;2022-10-22T15:53:38;10.20;;;9.10;;
26906;SDS011;14472;56.880;16.658;2022-10-22T15:56:04;9.10;;;8.20;;
26906;SDS011;14472;56.880;16.658;2022-10-22T15:58:30;9.47;;;8.47;;
26906;SDS011;14472;56.880;16.658;2022-10-22T16:01:06;9.80;;;8.80;;
26906;SDS011;14472;56.880;16.658;2022-10-22T16:03:37;8.90;;;8.00;;
26906;SDS011;14472;56.880;16.658;2022-10-22T16:06:03;9.80;;;8.87;;
26906;SDS011;14472;56.880;16.658;2022-10-22T16:08:29;8.57;;;7.77;;
26906;SDS011;14472;56.880;16.658;2022-10-22T16:10:55;8.83;;;8.03;;
26906;SDS011;14472;56.880;16.658;2022-10-22T16:13:22;7.50;;;6.80;;
26906;SDS011;14472;56.880;16.658;2022-10-22T16:15:49;8.03;;;7.23;;
26906;SDS011;14472;56.880;16.658;2022-10-22T16:18:16;8.00;;;7.30;;
26906;SDS011;14472;56.880;16.658;2022-10-22T16:20:42;7.03;;;6.43;;
26906;SDS011;14472;56.880;16.658;2022-10-22T16:23:08;6.80;;;6.20;;
26906;SDS011;14472;56.880;16.658;2022-10-22T16:25:40;7.10;;;6.40;;